sensor_id;sensor_type;location;lat;lon;timestamp;pressure;altitude;pressure_sealevel;temperature;humidity
23805;BME280;12083;52.098;7.582;2022-08-19T00:00:35;100997.69;;;21.24;71.31
23805;BME280;12083;52.098;7.582;2022-08-19T00:03:01;101001.41;;;21.22;71.07
23805;BME280;12083;52.098;7.582;2022-08-19T00:05:27;100998.00;;;21.20;71.17
23805;BME280;12083;52.098;7.582;2022-08-19T00:07:52;100989.28;;;21.16;71.40
23805;BME280;12083;52.098;7.582;2022-08-19T00:10:19;100984.06;;;21.15;71.21
23805;BME280;12083;52.098;7.582;2022-08-19T00:12:44;100993.97;;;21.13;71.45
23805;BME280;12083;52.098;7.582;2022-08-19T00:15:13;100992.31;;;21.10;71.44
23805;BME280;12083;52.098;7.582;2022-08-19T00:17:41;100988.06;;;21.08;71.52
23805;BME280;12083;52.098;7.582;2022-08-19T00:20:09;100989.94;;;21.06;71.33
23805;BME280;12083;52.098;7.582;2022-08-19T00:22:37;100997.22;;;21.04;71.52
23805;BME280;12083;52.098;7.582;2022-08-19T00:25:03;100989.41;;;21.01;71.65
23805;BME280;12083;52.098;7.582;2022-08-19T00:27:29;100994.75;;;21.01;71.51
23805;BME280;12083;52.098;7.582;2022-08-19T00:29:54;100995.75;;;20.98;71.76
23805;BME280;12083;52.098;7.582;2022-08-19T00:32:20;100994.16;;;20.96;71.98
23805;BME280;12083;52.098;7.582;2022-08-19T00:34:46;101004.84;;;20.96;71.87
23805;BME280;12083;52.098;7.582;2022-08-19T00:37:12;101005.03;;;20.92;71.80
23805;BME280;12083;52.098;7.582;2022-08-19T00:39:37;101005.19;;;20.89;71.85
23805;BME280;12083;52.098;7.582;2022-08-19T00:42:04;100999.03;;;20.89;71.83
23805;BME280;12083;52.098;7.582;2022-08-19T00:44:31;100993.00;;;20.85;71.89
23805;BME280;12083;52.098;7.582;2022-08-19T00:46:58;100998.53;;;20.82;72.16
23805;BME280;12083;52.098;7.582;2022-08-19T00:49:40;100992.44;;;20.80;72.09
23805;BME280;12083;52.098;7.582;2022-08-19T00:52:14;101006.00;;;20.77;72.49
23805;BME280;12083;52.098;7.582;2022-08-19T00:54:41;100995.31;;;20.77;72.07
23805;BME280;12083;52.098;7.582;2022-08-19T00:57:10;100989.38;;;20.72;72.35
23805;BME280;12083;52.098;7.582;2022-08-19T00:59:39;100990.31;;;20.71;72.24
23805;BME280;12083;52.098;7.582;2022-08-19T01:02:05;100979.84;;;20.68;72.25
23805;BME280;12083;52.098;7.582;2022-08-19T01:04:31;100991.47;;;20.67;72.43
23805;BME280;12083;52.098;7.582;2022-08-19T01:06:57;100983.66;;;20.64;72.60
23805;BME280;12083;52.098;7.582;2022-08-19T01:09:23;100979.38;;;20.62;72.64
23805;BME280;12083;52.098;7.582;2022-08-19T01:11:50;100980.41;;;20.59;72.60
23805;BME280;12083;52.098;7.582;2022-08-19T01:14:15;100975.16;;;20.58;72.28
23805;BME280;12083;52.098;7.582;2022-08-19T01:16:43;100983.25;;;20.56;72.63
23805;BME280;12083;52.098;7.582;2022-08-19T01:19:27;100977.19;;;20.54;72.76
23805;BME280;12083;52.098;7.582;2022-08-19T01:24:48;100967.78;;;20.47;72.76
23805;BME280;12083;52.098;7.582;2022-08-19T01:27:14;100972.38;;;20.45;72.96
23805;BME280;12083;52.098;7.582;2022-08-19T01:29:41;100971.72;;;20.41;73.06
23805;BME280;12083;52.098;7.582;2022-08-19T01:32:12;100973.59;;;20.39;73.12
23805;BME280;12083;52.098;7.582;2022-08-19T01:34:38;100971.03;;;20.38;72.99
23805;BME280;12083;52.098;7.582;2022-08-19T01:37:09;100967.59;;;20.36;73.21
23805;BME280;12083;52.098;7.582;2022-08-19T01:39:38;100977.59;;;20.32;73.13
23805;BME280;12083;52.098;7.582;2022-08-19T01:42:06;100982.25;;;20.29;73.15
23805;BME280;12083;52.098;7.582;2022-08-19T01:44:33;100979.63;;;20.27;73.32
23805;BME280;12083;52.098;7.582;2022-08-19T01:46:59;100978.97;;;20.24;73.42
23805;BME280;12083;52.098;7.582;2022-08-19T01:49:25;100977.28;;;20.23;73.43
23805;BME280;12083;52.098;7.582;2022-08-19T01:51:53;100974.69;;;20.21;73.44
23805;BME280;12083;52.098;7.582;2022-08-19T01:54:21;100975.63;;;20.20;73.48
23805;BME280;12083;52.098;7.582;2022-08-19T01:56:48;100974.00;;;20.18;73.69
23805;BME280;12083;52.098;7.582;2022-08-19T01:59:17;100981.25;;;20.16;73.51
23805;BME280;12083;52.098;7.582;2022-08-19T02:01:44;100985.81;;;20.14;73.70
23805;BME280;12083;52.098;7.582;2022-08-19T02:04:10;100986.94;;;20.10;73.70
23805;BME280;12083;52.098;7.582;2022-08-19T02:06:36;100981.78;;;20.07;73.86
23805;BME280;12083;52.098;7.582;2022-08-19T02:09:02;100990.72;;;20.06;73.76
23805;BME280;12083;52.098;7.582;2022-08-19T02:11:31;100988.25;;;20.03;73.97
23805;BME280;12083;52.098;7.582;2022-08-19T02:14:00;100981.19;;;20.02;73.76
23805;BME280;12083;52.098;7.582;2022-08-19T02:16:28;100979.47;;;20.01;73.89
23805;BME280;12083;52.098;7.582;2022-08-19T02:18:53;100978.72;;;19.98;73.78
23805;BME280;12083;52.098;7.582;2022-08-19T02:21:22;100975.25;;;19.96;73.76
23805;BME280;12083;52.098;7.582;2022-08-19T02:23:49;100977.19;;;19.94;73.93
23805;BME280;12083;52.098;7.582;2022-08-19T02:26:16;100974.69;;;19.91;73.94
23805;BME280;12083;52.098;7.582;2022-08-19T02:28:42;100974.78;;;19.90;74.11
23805;BME280;12083;52.098;7.582;2022-08-19T02:31:17;100967.81;;;19.87;74.24
23805;BME280;12083;52.098;7.582;2022-08-19T02:33:43;100962.69;;;19.84;74.16
23805;BME280;12083;52.098;7.582;2022-08-19T02:36:11;100971.50;;;19.85;74.13
23805;BME280;12083;52.098;7.582;2022-08-19T02:38:37;100958.47;;;19.80;74.41
23805;BME280;12083;52.098;7.582;2022-08-19T02:41:08;100960.34;;;19.78;74.43
23805;BME280;12083;52.098;7.582;2022-08-19T02:43:36;100965.88;;;19.75;74.41
23805;BME280;12083;52.098;7.582;2022-08-19T02:46:12;100960.72;;;19.72;74.59
23805;BME280;12083;52.098;7.582;2022-08-19T02:48:37;100960.72;;;19.72;74.46
23805;BME280;12083;52.098;7.582;2022-08-19T02:51:03;100965.25;;;19.70;74.65
23805;BME280;12083;52.098;7.582;2022-08-19T02:53:29;100972.50;;;19.68;74.46
23805;BME280;12083;52.098;7.582;2022-08-19T02:55:55;100964.69;;;19.65;74.67
23805;BME280;12083;52.098;7.582;2022-08-19T02:58:21;100967.34;;;19.65;74.53
23805;BME280;12083;52.098;7.582;2022-08-19T03:00:51;100971.03;;;19.63;74.74
23805;BME280;12083;52.098;7.582;2022-08-19T03:03:18;100959.50;;;19.62;74.69
23805;BME280;12083;52.098;7.582;2022-08-19T03:05:44;100963.28;;;19.58;74.85
23805;BME280;12083;52.098;7.582;2022-08-19T03:08:11;100963.28;;;19.58;74.74
23805;BME280;12083;52.098;7.582;2022-08-19T03:10:46;100952.81;;;19.55;75.06
23805;BME280;12083;52.098;7.582;2022-08-19T03:13:17;100953.75;;;19.54;74.92
23805;BME280;12083;52.098;7.582;2022-08-19T03:15:44;100952.06;;;19.53;74.94
23805;BME280;12083;52.098;7.582;2022-08-19T03:18:11;100954.91;;;19.50;75.14
23805;BME280;12083;52.098;7.582;2022-08-19T03:20:45;100949.59;;;19.50;75.24
23805;BME280;12083;52.098;7.582;2022-08-19T03:23:11;100947.75;;;19.50;75.19
23805;BME280;12083;52.098;7.582;2022-08-19T03:25:43;100937.19;;;19.49;75.29
23805;BME280;12083;52.098;7.582;2022-08-19T03:28:14;100948.78;;;19.48;75.51
23805;BME280;12083;52.098;7.582;2022-08-19T03:30:41;100949.84;;;19.45;75.51
23805;BME280;12083;52.098;7.582;2022-08-19T03:33:08;100949.91;;;19.44;75.72
23805;BME280;12083;52.098;7.582;2022-08-19T03:35:34;100957.97;;;19.42;75.90
23805;BME280;12083;52.098;7.582;2022-08-19T03:38:03;100966.03;;;19.41;75.96
23805;BME280;12083;52.098;7.582;2022-08-19T03:40:29;100966.13;;;19.39;76.06
23805;BME280;12083;52.098;7.582;2022-08-19T03:42:56;100971.56;;;19.38;75.96
23805;BME280;12083;52.098;7.582;2022-08-19T03:45:22;100979.63;;;19.36;76.17
23805;BME280;12083;52.098;7.582;2022-08-19T03:47:48;100976.28;;;19.33;76.26
23805;BME280;12083;52.098;7.582;2022-08-19T03:50:14;100979.13;;;19.30;76.56
23805;BME280;12083;52.098;7.582;2022-08-19T03:52:40;100965.00;;;19.28;76.72
23805;BME280;12083;52.098;7.582;2022-08-19T03:55:06;100970.34;;;19.28;76.62
23805;BME280;12083;52.098;7.582;2022-08-19T03:57:33;100965.09;;;19.26;76.71
23805;BME280;12083;52.098;7.582;2022-08-19T04:00:00;100965.97;;;19.27;76.59
23805;BME280;12083;52.098;7.582;2022-08-19T04:02:25;100973.16;;;19.25;76.93
23805;BME280;12083;52.098;7.582;2022-08-19T04:04:53;100973.25;;;19.23;76.92
23805;BME280;12083;52.098;7.582;2022-08-19T04:07:20;100976.78;;;19.24;76.81
23805;BME280;12083;52.098;7.582;2022-08-19T04:09:47;100977.81;;;19.21;76.78
23805;BME280;12083;52.098;7.582;2022-08-19T04:12:13;100979.63;;;19.21;76.92
23805;BME280;12083;52.098;7.582;2022-08-19T04:14:40;100977.88;;;19.20;76.74
23805;BME280;12083;52.098;7.582;2022-08-19T05:01:04;100990.44;;;19.18;77.18
23805;BME280;12083;52.098;7.582;2022-08-19T05:03:30;100989.50;;;19.19;77.36
23805;BME280;12083;52.098;7.582;2022-08-19T05:06:04;100992.06;;;19.20;77.32
23805;BME280;12083;52.098;7.582;2022-08-19T05:08:29;100987.53;;;19.22;77.52
23805;BME280;12083;52.098;7.582;2022-08-19T05:10:56;100989.16;;;19.25;77.26
23805;BME280;12083;52.098;7.582;2022-08-19T05:13:22;100988.97;;;19.28;77.46
23805;BME280;12083;52.098;7.582;2022-08-19T05:15:58;100999.38;;;19.32;77.49
23805;BME280;12083;52.098;7.582;2022-08-19T05:18:24;101000.88;;;19.38;77.49
23805;BME280;12083;52.098;7.582;2022-08-19T05:21:10;100993.47;;;19.43;77.62
23805;BME280;12083;52.098;7.582;2022-08-19T05:23:55;101001.91;;;19.51;77.49
23805;BME280;12083;52.098;7.582;2022-08-19T05:26:20;100997.19;;;19.56;77.55
23805;BME280;12083;52.098;7.582;2022-08-19T05:28:46;101010.94;;;19.64;77.40
23805;BME280;12083;52.098;7.582;2022-08-19T05:31:12;101017.63;;;19.71;77.39
23805;BME280;12083;52.098;7.582;2022-08-19T05:33:38;101015.41;;;19.79;77.35
23805;BME280;12083;52.098;7.582;2022-08-19T05:36:05;101007.81;;;19.87;77.20
23805;BME280;12083;52.098;7.582;2022-08-19T05:38:34;100998.50;;;19.94;77.24
23805;BME280;12083;52.098;7.582;2022-08-19T05:41:08;100992.66;;;20.04;77.38
23805;BME280;12083;52.098;7.582;2022-08-19T05:43:35;100998.56;;;20.09;77.25
23805;BME280;12083;52.098;7.582;2022-08-19T05:46:01;101002.50;;;20.17;77.25
23805;BME280;12083;52.098;7.582;2022-08-19T05:48:26;100996.69;;;20.25;77.63
23805;BME280;12083;52.098;7.582;2022-08-19T05:50:52;100996.19;;;20.34;77.52
23805;BME280;12083;52.098;7.582;2022-08-19T05:53:18;100986.66;;;20.44;77.57
23805;BME280;12083;52.098;7.582;2022-08-19T05:55:44;100990.53;;;20.54;77.68
23805;BME280;12083;52.098;7.582;2022-08-19T05:58:09;100988.13;;;20.64;77.44
23805;BME280;12083;52.098;7.582;2022-08-19T06:00:36;101000.81;;;20.74;77.39
23805;BME280;12083;52.098;7.582;2022-08-19T06:03:02;100985.09;;;20.84;77.32
23805;BME280;12083;52.098;7.582;2022-08-19T06:05:31;100993.97;;;20.99;77.67
23805;BME280;12083;52.098;7.582;2022-08-19T06:07:57;100991.66;;;21.35;78.53
23805;BME280;12083;52.098;7.582;2022-08-19T06:10:24;100984.41;;;21.91;78.70
23805;BME280;12083;52.098;7.582;2022-08-19T06:12:50;100989.69;;;22.57;77.85
23805;BME280;12083;52.098;7.582;2022-08-19T06:15:15;100991.66;;;22.93;76.81
23805;BME280;12083;52.098;7.582;2022-08-19T06:17:42;100987.25;;;23.17;76.13
23805;BME280;12083;52.098;7.582;2022-08-19T06:20:13;100979.31;;;23.52;75.82
23805;BME280;12083;52.098;7.582;2022-08-19T06:22:41;100968.50;;;24.12;75.37
23805;BME280;12083;52.098;7.582;2022-08-19T06:25:08;100967.22;;;24.97;74.63
23805;BME280;12083;52.098;7.582;2022-08-19T06:27:35;100974.34;;;26.06;73.45
23805;BME280;12083;52.098;7.582;2022-08-19T06:30:02;100966.22;;;27.19;71.14
23805;BME280;12083;52.098;7.582;2022-08-19T06:32:28;100960.13;;;28.24;68.50
23805;BME280;12083;52.098;7.582;2022-08-19T06:34:54;100954.13;;;29.23;66.63
23805;BME280;12083;52.098;7.582;2022-08-19T06:37:20;100962.59;;;30.18;64.38
23805;BME280;12083;52.098;7.582;2022-08-19T06:39:47;100960.13;;;31.02;62.37
23805;BME280;12083;52.098;7.582;2022-08-19T06:42:12;100957.00;;;31.81;60.74
23805;BME280;12083;52.098;7.582;2022-08-19T06:44:43;100950.91;;;32.60;58.49
23805;BME280;12083;52.098;7.582;2022-08-19T06:47:11;100944.00;;;33.35;56.75
23805;BME280;12083;52.098;7.582;2022-08-19T06:49:38;100951.84;;;34.15;54.98
23805;BME280;12083;52.098;7.582;2022-08-19T06:52:04;100951.09;;;34.87;53.47
23805;BME280;12083;52.098;7.582;2022-08-19T06:54:30;100956.13;;;35.49;51.62
23805;BME280;12083;52.098;7.582;2022-08-19T06:56:57;100942.72;;;36.11;50.25
23805;BME280;12083;52.098;7.582;2022-08-19T06:59:24;100951.44;;;36.77;48.60
23805;BME280;12083;52.098;7.582;2022-08-19T07:01:55;100941.47;;;37.45;47.44
23805;BME280;12083;52.098;7.582;2022-08-19T07:04:24;100926.41;;;38.08;45.27
23805;BME280;12083;52.098;7.582;2022-08-19T07:06:55;100924.28;;;38.69;44.57
23805;BME280;12083;52.098;7.582;2022-08-19T07:09:21;100924.94;;;39.29;42.90
23805;BME280;12083;52.098;7.582;2022-08-19T07:11:49;100935.50;;;39.76;41.51
23805;BME280;12083;52.098;7.582;2022-08-19T07:14:18;100934.97;;;40.17;40.16
23805;BME280;12083;52.098;7.582;2022-08-19T07:16:45;100942.00;;;40.56;39.59
23805;BME280;12083;52.098;7.582;2022-08-19T07:19:11;100937.56;;;40.80;38.84
23805;BME280;12083;52.098;7.582;2022-08-19T07:21:38;100946.28;;;40.95;37.82
23805;BME280;12083;52.098;7.582;2022-08-19T07:24:04;100945.41;;;41.01;37.50
23805;BME280;12083;52.098;7.582;2022-08-19T07:26:32;100946.75;;;41.10;36.68
23805;BME280;12083;52.098;7.582;2022-08-19T07:28:58;100947.38;;;41.12;36.49
23805;BME280;12083;52.098;7.582;2022-08-19T07:31:27;100947.69;;;41.04;36.42
23805;BME280;12083;52.098;7.582;2022-08-19T07:33:55;100948.75;;;40.85;36.27
23805;BME280;12083;52.098;7.582;2022-08-19T07:36:25;100949.91;;;40.53;36.15
23805;BME280;12083;52.098;7.582;2022-08-19T07:38:51;100958.75;;;40.05;36.33
23805;BME280;12083;52.098;7.582;2022-08-19T07:41:21;100951.47;;;39.55;36.57
23805;BME280;12083;52.098;7.582;2022-08-19T07:43:47;100961.22;;;38.99;36.80
23805;BME280;12083;52.098;7.582;2022-08-19T07:46:14;100962.97;;;38.48;37.42
23805;BME280;12083;52.098;7.582;2022-08-19T07:48:42;100976.84;;;37.94;37.37
23805;BME280;12083;52.098;7.582;2022-08-19T07:51:09;100975.41;;;37.37;38.32
23805;BME280;12083;52.098;7.582;2022-08-19T07:53:36;100975.06;;;36.78;38.75
23805;BME280;12083;52.098;7.582;2022-08-19T07:56:03;100976.28;;;36.20;39.35
23805;BME280;12083;52.098;7.582;2022-08-19T07:58:34;100986.75;;;35.59;39.48
23805;BME280;12083;52.098;7.582;2022-08-19T08:01:02;100986.03;;;35.07;40.72
23805;BME280;12083;52.098;7.582;2022-08-19T08:03:28;100994.75;;;34.58;41.09
23805;BME280;12083;52.098;7.582;2022-08-19T08:06:14;101003.66;;;34.15;41.73
23805;BME280;12083;52.098;7.582;2022-08-19T08:08:59;100992.66;;;33.77;42.45
23805;BME280;12083;52.098;7.582;2022-08-19T08:12:05;100992.16;;;33.43;42.67
23805;BME280;12083;52.098;7.582;2022-08-19T08:14:39;100995.84;;;33.19;43.15
23805;BME280;12083;52.098;7.582;2022-08-19T08:17:06;100987.88;;;33.01;43.20
23805;BME280;12083;52.098;7.582;2022-08-19T08:19:32;100990.94;;;32.90;43.63
23805;BME280;12083;52.098;7.582;2022-08-19T08:21:59;100993.72;;;32.82;43.73
23805;BME280;12083;52.098;7.582;2022-08-19T08:24:27;100998.63;;;32.79;43.87
23805;BME280;12083;52.098;7.582;2022-08-19T08:26:54;100993.53;;;32.76;44.06
23805;BME280;12083;52.098;7.582;2022-08-19T08:29:20;101000.53;;;32.78;44.06
23805;BME280;12083;52.098;7.582;2022-08-19T08:31:46;101003.06;;;32.80;44.15
23805;BME280;12083;52.098;7.582;2022-08-19T08:34:12;101006.16;;;32.69;43.96
23805;BME280;12083;52.098;7.582;2022-08-19T08:36:42;101016.00;;;32.53;44.11
23805;BME280;12083;52.098;7.582;2022-08-19T08:39:15;101012.78;;;32.42;43.99
23805;BME280;12083;52.098;7.582;2022-08-19T08:44:48;101006.69;;;32.32;43.97
23805;BME280;12083;52.098;7.582;2022-08-19T08:47:18;101007.00;;;32.29;44.14
23805;BME280;12083;52.098;7.582;2022-08-19T08:49:59;101020.63;;;32.21;44.09
23805;BME280;12083;52.098;7.582;2022-08-19T08:52:29;101004.47;;;32.11;43.77
23805;BME280;12083;52.098;7.582;2022-08-19T08:54:58;101004.59;;;32.01;43.95
23805;BME280;12083;52.098;7.582;2022-08-19T08:57:36;101009.66;;;31.88;43.55
23805;BME280;12083;52.098;7.582;2022-08-19T09:00:10;101013.56;;;31.78;43.83
23805;BME280;12083;52.098;7.582;2022-08-19T09:02:38;101017.94;;;31.71;44.25
23805;BME280;12083;52.098;7.582;2022-08-19T09:05:04;101014.69;;;31.67;44.45
23805;BME280;12083;52.098;7.582;2022-08-19T09:07:44;101017.94;;;31.62;44.04
23805;BME280;12083;52.098;7.582;2022-08-19T09:10:29;101006.22;;;31.62;44.44
23805;BME280;12083;52.098;7.582;2022-08-19T09:16:02;101014.38;;;31.62;44.06
23805;BME280;12083;52.098;7.582;2022-08-19T09:18:47;101011.97;;;31.59;44.69
23805;BME280;12083;52.098;7.582;2022-08-19T09:21:15;101019.78;;;31.54;44.30
23805;BME280;12083;52.098;7.582;2022-08-19T09:23:41;101016.66;;;31.49;44.68
23805;BME280;12083;52.098;7.582;2022-08-19T09:26:14;101010.22;;;31.50;44.15
23805;BME280;12083;52.098;7.582;2022-08-19T09:28:42;101007.06;;;31.54;44.09
23805;BME280;12083;52.098;7.582;2022-08-19T09:31:13;101001.78;;;31.61;44.06
23805;BME280;12083;52.098;7.582;2022-08-19T09:33:39;101002.31;;;31.64;44.07
23805;BME280;12083;52.098;7.582;2022-08-19T09:36:10;100999.75;;;31.63;43.77
23805;BME280;12083;52.098;7.582;2022-08-19T09:38:37;101009.59;;;31.56;43.83
23805;BME280;12083;52.098;7.582;2022-08-19T09:41:12;101004.59;;;31.43;43.78
23805;BME280;12083;52.098;7.582;2022-08-19T09:43:40;101002.72;;;31.36;43.83
23805;BME280;12083;52.098;7.582;2022-08-19T09:46:07;101004.56;;;31.35;43.69
23805;BME280;12083;52.098;7.582;2022-08-19T09:48:37;101004.41;;;31.37;44.00
23805;BME280;12083;52.098;7.582;2022-08-19T09:51:09;101008.47;;;31.41;43.70
23805;BME280;12083;52.098;7.582;2022-08-19T09:53:35;100999.34;;;31.50;43.49
23805;BME280;12083;52.098;7.582;2022-08-19T09:56:02;101000.44;;;31.57;43.93
23805;BME280;12083;52.098;7.582;2022-08-19T09:58:28;100989.25;;;31.68;43.71
23805;BME280;12083;52.098;7.582;2022-08-19T10:00:56;100994.19;;;31.81;43.23
23805;BME280;12083;52.098;7.582;2022-08-19T10:03:23;100998.81;;;31.96;43.23
23805;BME280;12083;52.098;7.582;2022-08-19T10:05:49;100994.59;;;32.10;42.71
23805;BME280;12083;52.098;7.582;2022-08-19T10:08:17;100992.88;;;32.17;42.29
23805;BME280;12083;52.098;7.582;2022-08-19T10:10:43;100991.72;;;32.20;42.02
23805;BME280;12083;52.098;7.582;2022-08-19T10:13:09;100990.00;;;32.19;41.91
23805;BME280;12083;52.098;7.582;2022-08-19T10:15:35;100992.38;;;32.13;41.92
23805;BME280;12083;52.098;7.582;2022-08-19T10:18:01;100995.91;;;32.06;41.75
23805;BME280;12083;52.098;7.582;2022-08-19T10:20:27;100996.09;;;31.96;41.77
23805;BME280;12083;52.098;7.582;2022-08-19T10:22:52;100992.84;;;31.85;41.77
23805;BME280;12083;52.098;7.582;2022-08-19T10:25:18;101000.13;;;31.76;41.85
23805;BME280;12083;52.098;7.582;2022-08-19T10:27:43;100995.03;;;31.73;42.04
23805;BME280;12083;52.098;7.582;2022-08-19T10:30:10;101002.88;;;31.84;41.65
23805;BME280;12083;52.098;7.582;2022-08-19T10:32:35;100991.16;;;32.00;41.38
23805;BME280;12083;52.098;7.582;2022-08-19T10:35:02;100984.56;;;32.19;41.01
23805;BME280;12083;52.098;7.582;2022-08-19T10:37:31;100972.00;;;32.34;40.58
23805;BME280;12083;52.098;7.582;2022-08-19T10:39:58;100972.97;;;32.57;40.52
23805;BME280;12083;52.098;7.582;2022-08-19T10:42:23;100972.91;;;32.97;39.74
23805;BME280;12083;52.098;7.582;2022-08-19T10:44:49;100974.41;;;33.47;39.35
23805;BME280;12083;52.098;7.582;2022-08-19T10:47:15;100975.50;;;33.91;38.62
23805;BME280;12083;52.098;7.582;2022-08-19T10:49:41;100976.00;;;33.95;38.21
23805;BME280;12083;52.098;7.582;2022-08-19T10:52:25;100977.34;;;33.99;37.81
23805;BME280;12083;52.098;7.582;2022-08-19T10:55:01;100968.38;;;33.90;37.65
23805;BME280;12083;52.098;7.582;2022-08-19T10:57:45;100969.09;;;34.07;37.33
23805;BME280;12083;52.098;7.582;2022-08-19T11:00:11;100963.66;;;34.67;36.79
23805;BME280;12083;52.098;7.582;2022-08-19T11:02:38;100965.69;;;35.38;35.79
23805;BME280;12083;52.098;7.582;2022-08-19T11:05:05;100959.38;;;36.10;34.43
23805;BME280;12083;52.098;7.582;2022-08-19T11:07:32;100952.28;;;36.71;33.72
23805;BME280;12083;52.098;7.582;2022-08-19T11:09:58;100950.63;;;37.11;33.24
23805;BME280;12083;52.098;7.582;2022-08-19T11:12:24;100955.22;;;37.51;32.52
23805;BME280;12083;52.098;7.582;2022-08-19T11:14:50;100958.06;;;37.91;32.35
23805;BME280;12083;52.098;7.582;2022-08-19T11:17:15;100944.38;;;38.43;31.56
23805;BME280;12083;52.098;7.582;2022-08-19T11:19:41;100954.03;;;38.98;31.19
23805;BME280;12083;52.098;7.582;2022-08-19T11:22:10;100958.53;;;39.37;30.62
23805;BME280;12083;52.098;7.582;2022-08-19T11:24:36;100957.44;;;39.83;30.32
23805;BME280;12083;52.098;7.582;2022-08-19T11:27:07;100948.63;;;40.30;29.88
23805;BME280;12083;52.098;7.582;2022-08-19T11:29:36;100957.16;;;40.72;29.50
23805;BME280;12083;52.098;7.582;2022-08-19T11:32:06;100946.22;;;41.02;29.17
23805;BME280;12083;52.098;7.582;2022-08-19T11:34:32;100939.25;;;41.17;28.90
23805;BME280;12083;52.098;7.582;2022-08-19T11:36:58;100950.47;;;40.98;29.20
23805;BME280;12083;52.098;7.582;2022-08-19T11:39:26;100943.19;;;40.67;29.04
23805;BME280;12083;52.098;7.582;2022-08-19T11:41:53;100940.88;;;40.21;29.02
23805;BME280;12083;52.098;7.582;2022-08-19T11:44:18;100946.16;;;39.91;29.36
23805;BME280;12083;52.098;7.582;2022-08-19T11:46:45;100943.41;;;39.91;29.65
23805;BME280;12083;52.098;7.582;2022-08-19T11:49:13;100939.91;;;40.09;29.07
23805;BME280;12083;52.098;7.582;2022-08-19T11:51:40;100932.06;;;39.81;29.28
23805;BME280;12083;52.098;7.582;2022-08-19T11:54:08;100936.34;;;39.39;29.36
23805;BME280;12083;52.098;7.582;2022-08-19T11:56:37;100930.53;;;39.53;29.59
23805;BME280;12083;52.098;7.582;2022-08-19T11:59:02;100933.44;;;39.96;28.85
23805;BME280;12083;52.098;7.582;2022-08-19T12:01:28;100942.22;;;40.36;28.47
23805;BME280;12083;52.098;7.582;2022-08-19T12:03:55;100931.75;;;40.70;28.20
23805;BME280;12083;52.098;7.582;2022-08-19T12:06:29;100933.09;;;40.79;27.93
23805;BME280;12083;52.098;7.582;2022-08-19T12:08:59;100936.50;;;40.56;27.85
23805;BME280;12083;52.098;7.582;2022-08-19T12:11:26;100928.81;;;40.65;27.91
23805;BME280;12083;52.098;7.582;2022-08-19T12:13:53;100924.78;;;40.85;27.55
23805;BME280;12083;52.098;7.582;2022-08-19T12:16:26;100931.69;;;41.13;27.20
23805;BME280;12083;52.098;7.582;2022-08-19T12:18:53;100933.56;;;41.30;27.13
23805;BME280;12083;52.098;7.582;2022-08-19T12:21:25;100929.81;;;41.25;27.35
23805;BME280;12083;52.098;7.582;2022-08-19T12:23:53;100935.94;;;40.72;27.26
23805;BME280;12083;52.098;7.582;2022-08-19T12:26:20;100932.25;;;40.11;27.89
23805;BME280;12083;52.098;7.582;2022-08-19T12:28:46;100920.41;;;39.47;28.23
23805;BME280;12083;52.098;7.582;2022-08-19T12:31:14;100923.50;;;39.13;28.12
23805;BME280;12083;52.098;7.582;2022-08-19T12:33:41;100921.00;;;39.12;28.49
23805;BME280;12083;52.098;7.582;2022-08-19T12:36:09;100915.06;;;39.15;28.19
23805;BME280;12083;52.098;7.582;2022-08-19T12:38:36;100926.47;;;39.18;28.27
23805;BME280;12083;52.098;7.582;2022-08-19T12:41:02;100914.47;;;39.06;28.36
23805;BME280;12083;52.098;7.582;2022-08-19T12:43:33;100907.69;;;39.02;28.54
23805;BME280;12083;52.098;7.582;2022-08-19T12:46:00;100909.41;;;39.03;27.93
23805;BME280;12083;52.098;7.582;2022-08-19T12:48:25;100910.06;;;38.98;28.21
23805;BME280;12083;52.098;7.582;2022-08-19T12:50:51;100905.44;;;38.92;27.88
23805;BME280;12083;52.098;7.582;2022-08-19T12:53:16;100907.13;;;38.74;27.92
23805;BME280;12083;52.098;7.582;2022-08-19T12:55:42;100906.78;;;38.57;28.21
23805;BME280;12083;52.098;7.582;2022-08-19T12:58:09;100907.84;;;38.43;27.93
23805;BME280;12083;52.098;7.582;2022-08-19T13:00:35;100913.53;;;38.28;28.13
23805;BME280;12083;52.098;7.582;2022-08-19T13:03:01;100910.19;;;38.13;27.84
23805;BME280;12083;52.098;7.582;2022-08-19T13:05:31;100905.50;;;37.94;28.01
23805;BME280;12083;52.098;7.582;2022-08-19T13:07:59;100906.34;;;37.75;28.29
23805;BME280;12083;52.098;7.582;2022-08-19T13:10:31;100895.56;;;37.53;28.30
23805;BME280;12083;52.098;7.582;2022-08-19T13:13:00;100890.00;;;37.34;28.29
23805;BME280;12083;52.098;7.582;2022-08-19T13:15:27;100899.19;;;37.13;28.25
23805;BME280;12083;52.098;7.582;2022-08-19T13:17:57;100899.50;;;36.97;28.45
23805;BME280;12083;52.098;7.582;2022-08-19T13:20:23;100895.44;;;36.80;28.58
23805;BME280;12083;52.098;7.582;2022-08-19T13:22:49;100893.28;;;36.68;28.47
23805;BME280;12083;52.098;7.582;2022-08-19T13:25:16;100893.63;;;36.59;28.82
23805;BME280;12083;52.098;7.582;2022-08-19T13:27:43;100879.63;;;36.47;28.80
23805;BME280;12083;52.098;7.582;2022-08-19T13:30:11;100883.13;;;36.35;29.30
23805;BME280;12083;52.098;7.582;2022-08-19T13:32:55;100874.63;;;36.23;29.47
23805;BME280;12083;52.098;7.582;2022-08-19T13:36:02;100881.22;;;36.07;29.36
23805;BME280;12083;52.098;7.582;2022-08-19T13:38:31;100883.72;;;36.02;29.58
23805;BME280;12083;52.098;7.582;2022-08-19T13:41:04;100883.41;;;35.91;29.67
23805;BME280;12083;52.098;7.582;2022-08-19T13:43:30;100877.41;;;35.80;29.93
23805;BME280;12083;52.098;7.582;2022-08-19T13:45:56;100873.06;;;35.65;29.60
23805;BME280;12083;52.098;7.582;2022-08-19T13:48:22;100871.78;;;35.46;30.27